sensor_id;sensor_type;location;lat;lon;timestamp;P1;durP1;ratioP1;P2;durP2;ratioP2
70406;SDS011;57821;52.202;0.154;2024-03-17T00:01:36;11.13;;;2.50;;
70406;SDS011;57821;52.202;0.154;2024-03-17T00:04:02;6.75;;;2.28;;
70406;SDS011;57821;52.202;0.154;2024-03-17T00:06:28;13.50;;;2.88;;
70406;SDS011;57821;52.202;0.154;2024-03-17T00:08:54;7.10;;;3.15;;
70406;SDS011;57821;52.202;0.154;2024-03-17T00:11:20;9.32;;;2.45;;
70406;SDS011;57821;52.202;0.154;2024-03-17T00:13:46;9.38;;;2.70;;
70406;SDS011;57821;52.202;0.154;2024-03-17T00:16:12;11.20;;;3.17;;
70406;SDS011;57821;52.202;0.154;2024-03-17T00:18:39;12.13;;;3.22;;
70406;SDS011;57821;52.202;0.154;2024-03-17T00:21:06;10.15;;;2.78;;
70406;SDS011;57821;52.202;0.154;2024-03-17T00:23:32;11.43;;;3.70;;
70406;SDS011;57821;52.202;0.154;2024-03-17T00:25:57;11.90;;;3.05;;
70406;SDS011;57821;52.202;0.154;2024-03-17T00:28:23;10.65;;;2.60;;
70406;SDS011;57821;52.202;0.154;2024-03-17T00:30:50;7.90;;;2.58;;
70406;SDS011;57821;52.202;0.154;2024-03-17T00:33:16;9.43;;;2.78;;
70406;SDS011;57821;52.202;0.154;2024-03-17T00:35:42;10.70;;;2.90;;
70406;SDS011;57821;52.202;0.154;2024-03-17T00:38:07;10.43;;;2.72;;
70406;SDS011;57821;52.202;0.154;2024-03-17T00:40:37;10.88;;;3.55;;
70406;SDS011;57821;52.202;0.154;2024-03-17T00:43:03;7.75;;;3.20;;
70406;SDS011;57821;52.202;0.154;2024-03-17T00:45:29;8.90;;;2.72;;
70406;SDS011;57821;52.202;0.154;2024-03-17T00:47:55;13.00;;;2.90;;
70406;SDS011;57821;52.202;0.154;2024-03-17T00:50:20;11.65;;;3.13;;
70406;SDS011;57821;52.202;0.154;2024-03-17T00:52:46;11.70;;;3.45;;
70406;SDS011;57821;52.202;0.154;2024-03-17T00:55:12;10.85;;;2.97;;
70406;SDS011;57821;52.202;0.154;2024-03-17T00:57:40;8.40;;;3.22;;
70406;SDS011;57821;52.202;0.154;2024-03-17T01:00:06;8.38;;;3.22;;
70406;SDS011;57821;52.202;0.154;2024-03-17T01:02:35;8.52;;;3.40;;
70406;SDS011;57821;52.202;0.154;2024-03-17T01:05:01;12.45;;;5.32;;
70406;SDS011;57821;52.202;0.154;2024-03-17T01:07:27;9.88;;;3.38;;
70406;SDS011;57821;52.202;0.154;2024-03-17T01:09:52;11.77;;;3.80;;
70406;SDS011;57821;52.202;0.154;2024-03-17T01:12:19;15.00;;;4.35;;
70406;SDS011;57821;52.202;0.154;2024-03-17T01:14:45;10.70;;;3.88;;
70406;SDS011;57821;52.202;0.154;2024-03-17T01:17:11;15.73;;;4.18;;
70406;SDS011;57821;52.202;0.154;2024-03-17T01:19:36;11.55;;;4.05;;
70406;SDS011;57821;52.202;0.154;2024-03-17T01:22:02;10.18;;;3.78;;
70406;SDS011;57821;52.202;0.154;2024-03-17T01:24:28;10.48;;;3.60;;
70406;SDS011;57821;52.202;0.154;2024-03-17T01:27:00;7.72;;;3.72;;
70406;SDS011;57821;52.202;0.154;2024-03-17T01:29:26;13.18;;;4.40;;
70406;SDS011;57821;52.202;0.154;2024-03-17T01:31:52;10.65;;;4.10;;
70406;SDS011;57821;52.202;0.154;2024-03-17T01:34:18;13.38;;;4.35;;
70406;SDS011;57821;52.202;0.154;2024-03-17T01:36:44;14.75;;;4.55;;
70406;SDS011;57821;52.202;0.154;2024-03-17T01:39:10;9.32;;;3.78;;
70406;SDS011;57821;52.202;0.154;2024-03-17T01:41:36;11.27;;;3.80;;
70406;SDS011;57821;52.202;0.154;2024-03-17T01:44:02;10.00;;;3.90;;
70406;SDS011;57821;52.202;0.154;2024-03-17T01:46:28;11.10;;;3.55;;
70406;SDS011;57821;52.202;0.154;2024-03-17T01:48:54;9.05;;;3.78;;
70406;SDS011;57821;52.202;0.154;2024-03-17T01:51:21;10.70;;;3.70;;
70406;SDS011;57821;52.202;0.154;2024-03-17T01:53:48;9.35;;;3.80;;
70406;SDS011;57821;52.202;0.154;2024-03-17T01:56:14;11.60;;;3.97;;
70406;SDS011;57821;52.202;0.154;2024-03-17T01:58:43;12.23;;;4.10;;
70406;SDS011;57821;52.202;0.154;2024-03-17T02:01:10;9.73;;;4.32;;
70406;SDS011;57821;52.202;0.154;2024-03-17T02:03:40;12.48;;;5.05;;
70406;SDS011;57821;52.202;0.154;2024-03-17T02:06:07;12.43;;;4.53;;
70406;SDS011;57821;52.202;0.154;2024-03-17T02:08:56;10.13;;;4.18;;
70406;SDS011;57821;52.202;0.154;2024-03-17T02:11:25;12.25;;;4.85;;
70406;SDS011;57821;52.202;0.154;2024-03-17T02:14:01;9.13;;;4.30;;
70406;SDS011;57821;52.202;0.154;2024-03-17T02:16:27;12.07;;;5.28;;
70406;SDS011;57821;52.202;0.154;2024-03-17T02:18:54;10.40;;;5.25;;
70406;SDS011;57821;52.202;0.154;2024-03-17T02:21:21;11.27;;;4.25;;
70406;SDS011;57821;52.202;0.154;2024-03-17T02:23:53;10.57;;;4.43;;
70406;SDS011;57821;52.202;0.154;2024-03-17T02:26:19;16.73;;;5.28;;
70406;SDS011;57821;52.202;0.154;2024-03-17T02:28:45;10.65;;;4.63;;
70406;SDS011;57821;52.202;0.154;2024-03-17T02:31:12;10.38;;;4.82;;
70406;SDS011;57821;52.202;0.154;2024-03-17T02:33:40;13.98;;;5.43;;
70406;SDS011;57821;52.202;0.154;2024-03-17T02:36:06;12.50;;;5.00;;
70406;SDS011;57821;52.202;0.154;2024-03-17T02:41:23;10.93;;;4.30;;
70406;SDS011;57821;52.202;0.154;2024-03-17T02:43:49;8.82;;;4.50;;
70406;SDS011;57821;52.202;0.154;2024-03-17T02:46:15;10.63;;;4.32;;
70406;SDS011;57821;52.202;0.154;2024-03-17T02:48:42;12.50;;;5.40;;
70406;SDS011;57821;52.202;0.154;2024-03-17T02:51:13;13.50;;;5.30;;
70406;SDS011;57821;52.202;0.154;2024-03-17T02:53:49;9.88;;;5.30;;
70406;SDS011;57821;52.202;0.154;2024-03-17T02:56:15;11.85;;;5.47;;
70406;SDS011;57821;52.202;0.154;2024-03-17T02:58:42;10.68;;;5.55;;
70406;SDS011;57821;52.202;0.154;2024-03-17T03:01:10;11.40;;;5.28;;
70406;SDS011;57821;52.202;0.154;2024-03-17T03:03:36;9.20;;;5.25;;
70406;SDS011;57821;52.202;0.154;2024-03-17T03:06:02;10.13;;;5.18;;
70406;SDS011;57821;52.202;0.154;2024-03-17T03:08:30;15.30;;;6.00;;
70406;SDS011;57821;52.202;0.154;2024-03-17T03:10:56;11.95;;;5.45;;
70406;SDS011;57821;52.202;0.154;2024-03-17T03:13:21;12.82;;;5.38;;
70406;SDS011;57821;52.202;0.154;2024-03-17T03:15:48;11.57;;;5.47;;
70406;SDS011;57821;52.202;0.154;2024-03-17T03:18:14;12.25;;;5.88;;
70406;SDS011;57821;52.202;0.154;2024-03-17T03:20:40;14.68;;;5.97;;
70406;SDS011;57821;52.202;0.154;2024-03-17T03:23:06;13.85;;;6.05;;
70406;SDS011;57821;52.202;0.154;2024-03-17T03:25:32;11.73;;;5.75;;
70406;SDS011;57821;52.202;0.154;2024-03-17T03:27:58;10.40;;;6.13;;
70406;SDS011;57821;52.202;0.154;2024-03-17T03:30:24;10.63;;;5.80;;
70406;SDS011;57821;52.202;0.154;2024-03-17T03:32:50;13.68;;;6.20;;
70406;SDS011;57821;52.202;0.154;2024-03-17T03:35:15;14.40;;;6.20;;
70406;SDS011;57821;52.202;0.154;2024-03-17T03:37:41;12.63;;;6.35;;
70406;SDS011;57821;52.202;0.154;2024-03-17T03:40:07;12.57;;;6.22;;
70406;SDS011;57821;52.202;0.154;2024-03-17T03:42:43;10.57;;;6.20;;
70406;SDS011;57821;52.202;0.154;2024-03-17T03:45:10;13.68;;;6.45;;
70406;SDS011;57821;52.202;0.154;2024-03-17T03:47:39;10.98;;;6.32;;
70406;SDS011;57821;52.202;0.154;2024-03-17T03:50:08;14.02;;;6.30;;
70406;SDS011;57821;52.202;0.154;2024-03-17T03:52:38;11.23;;;6.70;;
70406;SDS011;57821;52.202;0.154;2024-03-17T03:55:06;12.30;;;6.93;;
70406;SDS011;57821;52.202;0.154;2024-03-17T03:57:38;13.43;;;7.03;;
70406;SDS011;57821;52.202;0.154;2024-03-17T04:00:04;16.63;;;7.85;;
70406;SDS011;57821;52.202;0.154;2024-03-17T04:02:38;13.88;;;8.00;;
70406;SDS011;57821;52.202;0.154;2024-03-17T04:05:05;14.95;;;7.97;;
70406;SDS011;57821;52.202;0.154;2024-03-17T04:07:31;11.60;;;6.80;;
70406;SDS011;57821;52.202;0.154;2024-03-17T04:09:57;15.02;;;7.72;;
70406;SDS011;57821;52.202;0.154;2024-03-17T04:12:23;12.07;;;7.38;;
70406;SDS011;57821;52.202;0.154;2024-03-17T04:14:50;13.77;;;7.53;;
70406;SDS011;57821;52.202;0.154;2024-03-17T04:17:21;14.80;;;8.20;;
70406;SDS011;57821;52.202;0.154;2024-03-17T04:19:52;12.45;;;7.53;;
70406;SDS011;57821;52.202;0.154;2024-03-17T04:22:19;12.38;;;8.07;;
70406;SDS011;57821;52.202;0.154;2024-03-17T04:24:45;14.88;;;8.63;;
70406;SDS011;57821;52.202;0.154;2024-03-17T04:27:12;14.52;;;8.23;;
70406;SDS011;57821;52.202;0.154;2024-03-17T04:29:38;14.13;;;8.82;;
70406;SDS011;57821;52.202;0.154;2024-03-17T04:32:05;16.55;;;8.52;;
70406;SDS011;57821;52.202;0.154;2024-03-17T04:34:31;17.25;;;9.73;;
70406;SDS011;57821;52.202;0.154;2024-03-17T04:36:57;16.00;;;8.85;;
70406;SDS011;57821;52.202;0.154;2024-03-17T04:39:23;14.98;;;9.63;;
70406;SDS011;57821;52.202;0.154;2024-03-17T04:41:50;17.15;;;10.25;;
70406;SDS011;57821;52.202;0.154;2024-03-17T04:44:16;20.45;;;10.75;;
70406;SDS011;57821;52.202;0.154;2024-03-17T04:46:42;17.58;;;11.48;;
70406;SDS011;57821;52.202;0.154;2024-03-17T04:49:09;22.08;;;11.32;;
70406;SDS011;57821;52.202;0.154;2024-03-17T04:51:35;18.50;;;11.25;;
70406;SDS011;57821;52.202;0.154;2024-03-17T04:54:01;20.17;;;11.60;;
70406;SDS011;57821;52.202;0.154;2024-03-17T04:56:31;19.80;;;11.38;;
70406;SDS011;57821;52.202;0.154;2024-03-17T04:58:56;21.20;;;12.52;;
70406;SDS011;57821;52.202;0.154;2024-03-17T05:01:22;24.58;;;12.18;;
70406;SDS011;57821;52.202;0.154;2024-03-17T05:03:50;23.95;;;12.40;;
70406;SDS011;57821;52.202;0.154;2024-03-17T05:06:16;20.77;;;12.75;;
70406;SDS011;57821;52.202;0.154;2024-03-17T05:08:42;23.23;;;12.73;;
70406;SDS011;57821;52.202;0.154;2024-03-17T05:11:09;24.48;;;12.80;;
70406;SDS011;57821;52.202;0.154;2024-03-17T05:13:35;24.60;;;14.80;;
70406;SDS011;57821;52.202;0.154;2024-03-17T05:16:03;23.80;;;14.63;;
70406;SDS011;57821;52.202;0.154;2024-03-17T05:18:29;22.20;;;13.60;;
70406;SDS011;57821;52.202;0.154;2024-03-17T05:21:02;29.67;;;15.02;;
70406;SDS011;57821;52.202;0.154;2024-03-17T05:23:29;26.05;;;15.32;;
70406;SDS011;57821;52.202;0.154;2024-03-17T05:25:56;25.25;;;14.93;;
70406;SDS011;57821;52.202;0.154;2024-03-17T05:28:26;27.55;;;15.15;;
70406;SDS011;57821;52.202;0.154;2024-03-17T05:30:53;30.58;;;18.25;;
70406;SDS011;57821;52.202;0.154;2024-03-17T05:33:20;27.73;;;15.55;;
70406;SDS011;57821;52.202;0.154;2024-03-17T05:35:54;29.33;;;15.95;;
70406;SDS011;57821;52.202;0.154;2024-03-17T05:38:25;29.08;;;16.67;;
70406;SDS011;57821;52.202;0.154;2024-03-17T05:41:13;28.75;;;15.32;;
70406;SDS011;57821;52.202;0.154;2024-03-17T05:43:39;27.10;;;16.08;;
70406;SDS011;57821;52.202;0.154;2024-03-17T05:46:05;30.33;;;15.88;;
70406;SDS011;57821;52.202;0.154;2024-03-17T05:48:32;27.65;;;15.95;;
70406;SDS011;57821;52.202;0.154;2024-03-17T05:51:02;28.77;;;15.93;;
70406;SDS011;57821;52.202;0.154;2024-03-17T05:53:28;26.08;;;15.15;;
70406;SDS011;57821;52.202;0.154;2024-03-17T05:55:53;27.88;;;15.48;;
70406;SDS011;57821;52.202;0.154;2024-03-17T05:58:20;27.27;;;14.85;;
70406;SDS011;57821;52.202;0.154;2024-03-17T06:00:46;23.05;;;13.65;;
70406;SDS011;57821;52.202;0.154;2024-03-17T06:03:12;23.38;;;14.20;;
70406;SDS011;57821;52.202;0.154;2024-03-17T06:05:39;23.85;;;14.13;;
70406;SDS011;57821;52.202;0.154;2024-03-17T06:08:08;24.35;;;14.13;;
70406;SDS011;57821;52.202;0.154;2024-03-17T06:10:35;25.73;;;15.70;;
70406;SDS011;57821;52.202;0.154;2024-03-17T06:13:02;22.25;;;14.70;;
70406;SDS011;57821;52.202;0.154;2024-03-17T06:15:29;24.65;;;14.65;;
70406;SDS011;57821;52.202;0.154;2024-03-17T06:17:55;23.42;;;13.38;;
70406;SDS011;57821;52.202;0.154;2024-03-17T06:20:22;22.80;;;13.23;;
70406;SDS011;57821;52.202;0.154;2024-03-17T06:22:49;26.45;;;14.35;;
70406;SDS011;57821;52.202;0.154;2024-03-17T06:25:15;24.45;;;13.85;;
70406;SDS011;57821;52.202;0.154;2024-03-17T06:27:42;25.48;;;13.77;;
70406;SDS011;57821;52.202;0.154;2024-03-17T06:30:13;25.48;;;14.32;;
70406;SDS011;57821;52.202;0.154;2024-03-17T06:32:43;26.33;;;13.57;;
70406;SDS011;57821;52.202;0.154;2024-03-17T06:35:12;21.17;;;12.90;;
70406;SDS011;57821;52.202;0.154;2024-03-17T06:37:41;23.65;;;13.60;;
70406;SDS011;57821;52.202;0.154;2024-03-17T06:40:16;28.50;;;13.50;;
70406;SDS011;57821;52.202;0.154;2024-03-17T06:42:43;26.02;;;13.98;;
70406;SDS011;57821;52.202;0.154;2024-03-17T06:45:09;23.83;;;13.27;;
70406;SDS011;57821;52.202;0.154;2024-03-17T06:47:35;29.13;;;14.02;;
70406;SDS011;57821;52.202;0.154;2024-03-17T06:50:02;24.45;;;13.93;;
70406;SDS011;57821;52.202;0.154;2024-03-17T06:52:28;27.75;;;14.18;;
70406;SDS011;57821;52.202;0.154;2024-03-17T06:54:54;24.67;;;13.57;;
70406;SDS011;57821;52.202;0.154;2024-03-17T06:57:20;27.98;;;14.68;;
70406;SDS011;57821;52.202;0.154;2024-03-17T06:59:46;29.90;;;14.63;;
70406;SDS011;57821;52.202;0.154;2024-03-17T07:02:13;29.15;;;15.20;;
70406;SDS011;57821;52.202;0.154;2024-03-17T07:04:43;29.10;;;13.75;;
70406;SDS011;57821;52.202;0.154;2024-03-17T07:07:09;25.98;;;14.85;;
70406;SDS011;57821;52.202;0.154;2024-03-17T07:09:35;33.00;;;13.38;;
70406;SDS011;57821;52.202;0.154;2024-03-17T07:12:01;28.70;;;14.20;;
70406;SDS011;57821;52.202;0.154;2024-03-17T07:14:27;29.75;;;15.60;;
70406;SDS011;57821;52.202;0.154;2024-03-17T07:16:53;27.98;;;14.50;;
70406;SDS011;57821;52.202;0.154;2024-03-17T07:19:19;31.50;;;14.63;;
70406;SDS011;57821;52.202;0.154;2024-03-17T07:21:45;32.00;;;15.25;;
70406;SDS011;57821;52.202;0.154;2024-03-17T07:24:10;34.55;;;15.73;;
70406;SDS011;57821;52.202;0.154;2024-03-17T07:26:36;30.83;;;14.38;;
70406;SDS011;57821;52.202;0.154;2024-03-17T07:29:02;30.17;;;14.15;;
70406;SDS011;57821;52.202;0.154;2024-03-17T07:31:27;25.40;;;13.13;;
70406;SDS011;57821;52.202;0.154;2024-03-17T07:33:53;28.40;;;15.23;;
70406;SDS011;57821;52.202;0.154;2024-03-17T07:36:19;26.52;;;13.80;;
70406;SDS011;57821;52.202;0.154;2024-03-17T07:38:47;30.77;;;14.05;;
70406;SDS011;57821;52.202;0.154;2024-03-17T07:41:12;30.60;;;14.52;;
70406;SDS011;57821;52.202;0.154;2024-03-17T07:43:38;33.78;;;15.48;;
70406;SDS011;57821;52.202;0.154;2024-03-17T07:48:36;35.72;;;14.65;;
70406;SDS011;57821;52.202;0.154;2024-03-17T07:51:03;31.83;;;13.93;;
70406;SDS011;57821;52.202;0.154;2024-03-17T07:53:35;27.70;;;13.18;;
70406;SDS011;57821;52.202;0.154;2024-03-17T07:56:05;29.60;;;13.52;;
70406;SDS011;57821;52.202;0.154;2024-03-17T07:58:32;27.70;;;13.18;;
70406;SDS011;57821;52.202;0.154;2024-03-17T08:00:59;32.25;;;14.38;;
70406;SDS011;57821;52.202;0.154;2024-03-17T08:03:27;28.35;;;13.85;;
70406;SDS011;57821;52.202;0.154;2024-03-17T08:05:54;26.50;;;13.68;;
70406;SDS011;57821;52.202;0.154;2024-03-17T08:08:20;31.67;;;13.73;;
70406;SDS011;57821;52.202;0.154;2024-03-17T08:10:46;30.00;;;12.70;;
70406;SDS011;57821;52.202;0.154;2024-03-17T08:13:14;28.67;;;12.27;;
70406;SDS011;57821;52.202;0.154;2024-03-17T08:15:43;24.95;;;12.15;;
70406;SDS011;57821;52.202;0.154;2024-03-17T08:18:11;31.80;;;12.43;;
70406;SDS011;57821;52.202;0.154;2024-03-17T08:20:40;24.63;;;11.88;;
70406;SDS011;57821;52.202;0.154;2024-03-17T08:23:07;32.33;;;12.88;;
70406;SDS011;57821;52.202;0.154;2024-03-17T08:25:33;25.58;;;11.85;;
70406;SDS011;57821;52.202;0.154;2024-03-17T08:28:00;25.55;;;10.95;;
70406;SDS011;57821;52.202;0.154;2024-03-17T08:30:26;32.05;;;12.85;;
70406;SDS011;57821;52.202;0.154;2024-03-17T08:32:52;27.48;;;11.95;;
70406;SDS011;57821;52.202;0.154;2024-03-17T08:35:17;26.08;;;11.88;;
70406;SDS011;57821;52.202;0.154;2024-03-17T08:37:43;23.10;;;11.15;;
70406;SDS011;57821;52.202;0.154;2024-03-17T08:40:10;25.65;;;10.77;;
70406;SDS011;57821;52.202;0.154;2024-03-17T08:42:37;30.23;;;12.35;;
70406;SDS011;57821;52.202;0.154;2024-03-17T08:45:03;28.10;;;11.20;;
70406;SDS011;57821;52.202;0.154;2024-03-17T08:47:29;21.75;;;11.43;;
70406;SDS011;57821;52.202;0.154;2024-03-17T08:49:55;22.15;;;10.73;;
70406;SDS011;57821;52.202;0.154;2024-03-17T08:52:21;20.92;;;9.65;;
70406;SDS011;57821;52.202;0.154;2024-03-17T08:54:47;24.98;;;11.48;;
70406;SDS011;57821;52.202;0.154;2024-03-17T08:57:13;20.95;;;10.00;;
70406;SDS011;57821;52.202;0.154;2024-03-17T08:59:39;24.40;;;9.15;;
70406;SDS011;57821;52.202;0.154;2024-03-17T09:02:05;21.27;;;9.40;;
70406;SDS011;57821;52.202;0.154;2024-03-17T09:04:39;19.27;;;9.15;;
70406;SDS011;57821;52.202;0.154;2024-03-17T09:07:05;23.27;;;9.68;;
70406;SDS011;57821;52.202;0.154;2024-03-17T09:09:30;21.08;;;10.02;;
70406;SDS011;57821;52.202;0.154;2024-03-17T09:11:56;20.98;;;9.30;;
70406;SDS011;57821;52.202;0.154;2024-03-17T09:14:22;20.92;;;9.70;;
70406;SDS011;57821;52.202;0.154;2024-03-17T09:16:48;20.30;;;8.00;;
70406;SDS011;57821;52.202;0.154;2024-03-17T09:19:14;22.35;;;9.60;;
70406;SDS011;57821;52.202;0.154;2024-03-17T09:21:39;25.38;;;9.68;;
70406;SDS011;57821;52.202;0.154;2024-03-17T09:24:06;21.15;;;8.30;;
70406;SDS011;57821;52.202;0.154;2024-03-17T09:26:35;22.20;;;8.05;;
70406;SDS011;57821;52.202;0.154;2024-03-17T09:29:01;22.58;;;8.57;;
70406;SDS011;57821;52.202;0.154;2024-03-17T09:31:27;23.67;;;8.25;;
70406;SDS011;57821;52.202;0.154;2024-03-17T09:33:52;26.05;;;8.00;;
70406;SDS011;57821;52.202;0.154;2024-03-17T09:36:18;18.38;;;7.65;;
70406;SDS011;57821;52.202;0.154;2024-03-17T09:38:44;22.90;;;7.93;;
70406;SDS011;57821;52.202;0.154;2024-03-17T09:41:19;22.10;;;8.30;;
70406;SDS011;57821;52.202;0.154;2024-03-17T09:43:47;17.92;;;8.30;;
70406;SDS011;57821;52.202;0.154;2024-03-17T09:46:14;21.50;;;7.70;;
70406;SDS011;57821;52.202;0.154;2024-03-17T09:48:41;18.83;;;8.00;;
70406;SDS011;57821;52.202;0.154;2024-03-17T09:51:08;21.25;;;8.70;;
70406;SDS011;57821;52.202;0.154;2024-03-17T09:53:49;20.70;;;7.63;;
70406;SDS011;57821;52.202;0.154;2024-03-17T09:56:18;18.45;;;8.50;;
70406;SDS011;57821;52.202;0.154;2024-03-17T09:58:52;18.15;;;7.32;;
70406;SDS011;57821;52.202;0.154;2024-03-17T10:01:18;16.77;;;7.53;;
70406;SDS011;57821;52.202;0.154;2024-03-17T10:03:47;17.67;;;7.50;;
70406;SDS011;57821;52.202;0.154;2024-03-17T10:06:17;19.45;;;7.30;;
70406;SDS011;57821;52.202;0.154;2024-03-17T10:08:51;19.25;;;7.47;;
70406;SDS011;57821;52.202;0.154;2024-03-17T10:11:19;18.40;;;5.90;;
70406;SDS011;57821;52.202;0.154;2024-03-17T10:13:47;12.70;;;5.78;;
70406;SDS011;57821;52.202;0.154;2024-03-17T10:16:27;21.80;;;7.10;;
70406;SDS011;57821;52.202;0.154;2024-03-17T10:19:07;18.75;;;4.57;;
70406;SDS011;57821;52.202;0.154;2024-03-17T10:21:36;17.77;;;5.53;;
70406;SDS011;57821;52.202;0.154;2024-03-17T10:24:24;13.02;;;5.07;;
70406;SDS011;57821;52.202;0.154;2024-03-17T10:26:50;16.45;;;5.38;;
70406;SDS011;57821;52.202;0.154;2024-03-17T10:29:25;11.88;;;4.32;;
70406;SDS011;57821;52.202;0.154;2024-03-17T10:31:52;16.23;;;4.47;;
70406;SDS011;57821;52.202;0.154;2024-03-17T10:34:19;13.63;;;3.92;;
70406;SDS011;57821;52.202;0.154;2024-03-17T10:36:46;12.68;;;3.85;;
70406;SDS011;57821;52.202;0.154;2024-03-17T10:39:27;13.02;;;4.25;;
70406;SDS011;57821;52.202;0.154;2024-03-17T10:42:06;14.85;;;3.70;;
70406;SDS011;57821;52.202;0.154;2024-03-17T10:44:37;10.38;;;3.42;;
70406;SDS011;57821;52.202;0.154;2024-03-17T10:47:04;11.90;;;3.63;;
70406;SDS011;57821;52.202;0.154;2024-03-17T10:49:37;8.30;;;3.30;;
70406;SDS011;57821;52.202;0.154;2024-03-17T10:52:06;8.02;;;3.80;;
70406;SDS011;57821;52.202;0.154;2024-03-17T10:54:45;10.25;;;3.38;;
70406;SDS011;57821;52.202;0.154;2024-03-17T10:59:54;11.20;;;3.47;;
70406;SDS011;57821;52.202;0.154;2024-03-17T11:02:22;10.07;;;3.38;;
70406;SDS011;57821;52.202;0.154;2024-03-17T11:04:57;12.60;;;4.38;;
70406;SDS011;57821;52.202;0.154;2024-03-17T11:07:25;9.02;;;3.97;;
70406;SDS011;57821;52.202;0.154;2024-03-17T11:09:53;10.07;;;3.35;;
70406;SDS011;57821;52.202;0.154;2024-03-17T11:17:48;9.20;;;3.25;;
70406;SDS011;57821;52.202;0.154;2024-03-17T11:20:21;7.90;;;3.03;;
70406;SDS011;57821;52.202;0.154;2024-03-17T11:22:49;8.43;;;3.00;;
70406;SDS011;57821;52.202;0.154;2024-03-17T11:27:54;8.60;;;2.60;;
70406;SDS011;57821;52.202;0.154;2024-03-17T11:51:57;7.70;;;2.03;;
70406;SDS011;57821;52.202;0.154;2024-03-17T11:56:55;5.05;;;1.60;;
70406;SDS011;57821;52.202;0.154;2024-03-17T11:59:34;6.75;;;1.70;;
70406;SDS011;57821;52.202;0.154;2024-03-17T12:02:00;5.75;;;1.88;;
70406;SDS011;57821;52.202;0.154;2024-03-17T12:04:27;5.22;;;1.60;;
70406;SDS011;57821;52.202;0.154;2024-03-17T12:06:56;6.20;;;1.90;;
70406;SDS011;57821;52.202;0.154;2024-03-17T12:09:27;4.05;;;1.40;;
70406;SDS011;57821;52.202;0.154;2024-03-17T12:11:59;4.75;;;1.50;;
70406;SDS011;57821;52.202;0.154;2024-03-17T12:14:28;5.97;;;1.52;;
70406;SDS011;57821;52.202;0.154;2024-03-17T12:19:30;4.10;;;1.38;;
70406;SDS011;57821;52.202;0.154;2024-03-17T12:21:57;6.15;;;1.60;;
70406;SDS011;57821;52.202;0.154;2024-03-17T12:24:24;4.95;;;1.05;;
70406;SDS011;57821;52.202;0.154;2024-03-17T12:26:52;5.43;;;1.30;;
70406;SDS011;57821;52.202;0.154;2024-03-17T12:29:23;5.70;;;1.45;;
70406;SDS011;57821;52.202;0.154;2024-03-17T12:32:15;6.40;;;1.17;;
70406;SDS011;57821;52.202;0.154;2024-03-17T12:34:50;4.60;;;1.70;;
70406;SDS011;57821;52.202;0.154;2024-03-17T12:37:21;5.05;;;1.50;;
70406;SDS011;57821;52.202;0.154;2024-03-17T12:39:48;5.18;;;1.20;;
70406;SDS011;57821;52.202;0.154;2024-03-17T12:42:15;5.07;;;1.10;;
70406;SDS011;57821;52.202;0.154;2024-03-17T12:44:52;6.00;;;1.20;;
70406;SDS011;57821;52.202;0.154;2024-03-17T12:47:23;6.47;;;1.60;;
70406;SDS011;57821;52.202;0.154;2024-03-17T12:50:00;5.28;;;1.40;;
70406;SDS011;57821;52.202;0.154;2024-03-17T12:52:33;3.33;;;0.90;;
70406;SDS011;57821;52.202;0.154;2024-03-17T12:55:03;4.40;;;1.23;;
70406;SDS011;57821;52.202;0.154;2024-03-17T12:57:49;3.75;;;1.10;;
70406;SDS011;57821;52.202;0.154;2024-03-17T13:00:35;3.20;;;1.10;;
70406;SDS011;57821;52.202;0.154;2024-03-17T13:03:03;3.45;;;0.93;;
70406;SDS011;57821;52.202;0.154;2024-03-17T13:05:34;6.82;;;1.17;;
70406;SDS011;57821;52.202;0.154;2024-03-17T13:08:00;5.75;;;0.95;;
70406;SDS011;57821;52.202;0.154;2024-03-17T13:10:27;3.53;;;0.95;;
70406;SDS011;57821;52.202;0.154;2024-03-17T13:13:05;2.80;;;0.82;;
70406;SDS011;57821;52.202;0.154;2024-03-17T13:15:34;2.97;;;1.05;;
70406;SDS011;57821;52.202;0.154;2024-03-17T13:18:01;3.85;;;1.10;;
70406;SDS011;57821;52.202;0.154;2024-03-17T13:20:29;3.35;;;0.82;;
70406;SDS011;57821;52.202;0.154;2024-03-17T13:22:56;2.85;;;0.88;;
70406;SDS011;57821;52.202;0.154;2024-03-17T13:25:26;2.85;;;1.02;;
70406;SDS011;57821;52.202;0.154;2024-03-17T13:27:58;4.05;;;1.08;;
70406;SDS011;57821;52.202;0.154;2024-03-17T13:30:24;3.53;;;1.23;;
70406;SDS011;57821;52.202;0.154;2024-03-17T13:32:52;4.13;;;0.93;;
70406;SDS011;57821;52.202;0.154;2024-03-17T13:35:27;3.13;;;0.90;;
70406;SDS011;57821;52.202;0.154;2024-03-17T13:37:57;3.20;;;1.13;;
70406;SDS011;57821;52.202;0.154;2024-03-17T13:40:25;3.78;;;1.08;;
70406;SDS011;57821;52.202;0.154;2024-03-17T13:42:52;3.40;;;1.15;;
70406;SDS011;57821;52.202;0.154;2024-03-17T13:45:19;5.18;;;1.20;;
70406;SDS011;57821;52.202;0.154;2024-03-17T13:47:50;3.72;;;1.02;;
70406;SDS011;57821;52.202;0.154;2024-03-17T13:50:21;3.17;;;1.00;;
70406;SDS011;57821;52.202;0.154;2024-03-17T13:52:47;4.13;;;1.20;;
70406;SDS011;57821;52.202;0.154;2024-03-17T13:55:17;3.80;;;1.30;;
70406;SDS011;57821;52.202;0.154;2024-03-17T13:57:46;3.40;;;1.05;;
70406;SDS011;57821;52.202;0.154;2024-03-17T14:00:14;3.30;;;1.00;;
70406;SDS011;57821;52.202;0.154;2024-03-17T14:02:45;3.28;;;1.08;;
70406;SDS011;57821;52.202;0.154;2024-03-17T14:05:12;2.30;;;0.80;;
70406;SDS011;57821;52.202;0.154;2024-03-17T14:07:39;4.28;;;1.20;;
70406;SDS011;57821;52.202;0.154;2024-03-17T14:10:05;4.45;;;1.40;;
70406;SDS011;57821;52.202;0.154;2024-03-17T14:12:34;3.35;;;0.90;;
70406;SDS011;57821;52.202;0.154;2024-03-17T14:15:00;4.20;;;0.80;;
70406;SDS011;57821;52.202;0.154;2024-03-17T14:17:28;2.90;;;0.90;;
70406;SDS011;57821;52.202;0.154;2024-03-17T14:19:54;2.83;;;0.80;;
70406;SDS011;57821;52.202;0.154;2024-03-17T14:22:20;3.35;;;0.90;;
70406;SDS011;57821;52.202;0.154;2024-03-17T14:24:46;3.28;;;1.05;;
70406;SDS011;57821;52.202;0.154;2024-03-17T14:27:12;5.53;;;1.10;;
70406;SDS011;57821;52.202;0.154;2024-03-17T14:29:38;4.28;;;0.90;;
70406;SDS011;57821;52.202;0.154;2024-03-17T14:32:04;3.17;;;0.93;;
70406;SDS011;57821;52.202;0.154;2024-03-17T14:34:30;3.35;;;0.77;;
70406;SDS011;57821;52.202;0.154;2024-03-17T14:37:03;3.10;;;0.68;;
70406;SDS011;57821;52.202;0.154;2024-03-17T14:39:32;3.65;;;0.90;;
70406;SDS011;57821;52.202;0.154;2024-03-17T14:41:58;3.50;;;1.00;;
70406;SDS011;57821;52.202;0.154;2024-03-17T14:44:25;4.25;;;0.82;;
70406;SDS011;57821;52.202;0.154;2024-03-17T14:46:50;3.10;;;0.70;;
70406;SDS011;57821;52.202;0.154;2024-03-17T14:49:17;4.13;;;0.70;;
70406;SDS011;57821;52.202;0.154;2024-03-17T14:51:43;3.05;;;0.90;;
70406;SDS011;57821;52.202;0.154;2024-03-17T14:54:09;2.90;;;0.80;;
70406;SDS011;57821;52.202;0.154;2024-03-17T14:56:38;4.30;;;0.70;;
70406;SDS011;57821;52.202;0.154;2024-03-17T14:59:05;5.05;;;1.02;;
70406;SDS011;57821;52.202;0.154;2024-03-17T15:01:31;15.77;;;2.17;;
70406;SDS011;57821;52.202;0.154;2024-03-17T15:03:57;2.88;;;1.05;;
70406;SDS011;57821;52.202;0.154;2024-03-17T15:06:23;3.00;;;0.70;;
70406;SDS011;57821;52.202;0.154;2024-03-17T15:08:50;3.40;;;0.80;;
70406;SDS011;57821;52.202;0.154;2024-03-17T15:11:16;3.13;;;0.80;;
70406;SDS011;57821;52.202;0.154;2024-03-17T15:13:43;4.35;;;0.90;;
70406;SDS011;57821;52.202;0.154;2024-03-17T15:16:09;3.58;;;1.08;;
70406;SDS011;57821;52.202;0.154;2024-03-17T15:18:35;3.80;;;0.80;;
70406;SDS011;57821;52.202;0.154;2024-03-17T15:21:02;3.33;;;0.90;;
70406;SDS011;57821;52.202;0.154;2024-03-17T15:23:31;3.78;;;0.90;;